Weather at Savonlinna Airport

Public forecast

Using degrees Celsius for public forecast. Weather courtesy of forecast.io.

Current aviation weather report (METAR) for Savonlinna Airport

2024/06/18 06:20 (retrieved 29 minutes ago)

EFSA 180620Z 31008KT CAVOK 19/15 Q1008

Closest aviation forecast (TAF) to Savonlinna Airport

Closest forecast is Kuopio Airport, 71.4 nm (132.2 km) NNW.

2024/06/18 06:42 (retrieved 7 minutes ago)

TAF EFKU 180536Z 1806/1906 13004KT 9999 -RA NSC TEMPO 1806/1901 FEW030CB PROB40 TEMPO 1806/1815 6000 SHRA PROB30 TEMPO 1815/1823 6000 TSRA BKN012 BECMG 1903/1905 26010KT